createdAt,value
2023-02-11T00:01:29.234Z,-2.37
2023-02-11T00:03:58.154Z,-2.42
2023-02-11T00:06:28.134Z,-2.56
2023-02-11T00:08:56.501Z,-2.51
2023-02-11T00:11:31.678Z,-2.46
2023-02-11T00:14:01.609Z,-2.54
2023-02-11T00:16:30.848Z,-2.53
2023-02-11T00:19:03.172Z,-2.58
2023-02-11T00:21:30.774Z,-2.60
2023-02-11T00:24:00.097Z,-2.63
2023-02-11T00:26:31.489Z,-2.78
2023-02-11T00:29:00.996Z,-2.78
2023-02-11T00:31:28.849Z,-2.84
2023-02-11T00:33:57.101Z,-3.56
2023-02-11T00:36:27.245Z,-2.91
2023-02-11T00:38:56.242Z,-3.16
2023-02-11T00:41:24.509Z,-2.95
2023-02-11T00:43:52.678Z,-3.04
2023-02-11T00:46:20.750Z,-3.24
2023-02-11T00:48:49.085Z,-3.12
2023-02-11T00:51:16.449Z,-3.18
2023-02-11T00:53:44.011Z,-3.20
2023-02-11T00:56:11.564Z,-3.29
2023-02-11T00:58:38.889Z,-3.32
2023-02-11T01:01:06.995Z,-3.45
2023-02-11T01:03:35.226Z,-3.29
2023-02-11T01:06:02.675Z,-3.39
2023-02-11T01:08:30.413Z,-3.47
2023-02-11T01:11:00.719Z,-3.30
2023-02-11T01:13:29.470Z,-3.43
2023-02-11T01:15:57.404Z,-3.34
2023-02-11T01:18:26.030Z,-3.35
2023-02-11T01:20:54.294Z,-3.37
2023-02-11T01:23:22.185Z,-3.43
2023-02-11T01:25:50.380Z,-3.41
2023-02-11T01:28:20.414Z,-3.49
2023-02-11T01:30:48.540Z,-3.90
2023-02-11T01:33:16.604Z,-3.39
2023-02-11T01:35:45.017Z,-3.42
2023-02-11T01:38:29.811Z,-3.48
2023-02-11T01:41:06.245Z,-4.06
2023-02-11T01:43:42.914Z,-3.54
2023-02-11T01:46:23.740Z,-3.90
2023-02-11T01:49:00.142Z,-3.56
2023-02-11T01:51:50.700Z,-3.60
2023-02-11T01:54:41.743Z,-3.81
2023-02-11T01:57:23.328Z,-3.57
2023-02-11T02:00:13.304Z,-3.61
2023-02-11T02:02:44.125Z,-3.58
2023-02-11T02:05:22.225Z,-3.48
2023-02-11T02:08:06.877Z,-3.37
2023-02-11T02:10:37.103Z,-3.23
2023-02-11T02:13:04.604Z,-3.21
2023-02-11T02:15:37.960Z,-2.97
2023-02-11T02:18:20.024Z,-2.91
2023-02-11T02:21:23.400Z,-2.78
2023-02-11T02:24:14.289Z,-2.66
2023-02-11T02:27:00.546Z,-2.57
2023-02-11T02:29:51.977Z,-2.49
2023-02-11T02:32:34.552Z,-2.41
2023-02-11T02:35:09.729Z,-2.34
2023-02-11T02:37:53.642Z,-2.28
2023-02-11T02:40:27.654Z,-2.47
2023-02-11T02:42:55.754Z,-2.19
2023-02-11T02:45:22.974Z,-2.19
2023-02-11T02:47:50.419Z,-2.78
2023-02-11T02:50:25.595Z,-2.21
2023-02-11T02:53:01.815Z,-2.21
2023-02-11T02:55:55.950Z,-2.46
2023-02-11T02:58:54.359Z,-2.38
2023-02-11T03:02:06.712Z,-2.44
2023-02-11T03:04:49.042Z,-2.36
2023-02-11T03:07:45.418Z,-2.39
2023-02-11T03:10:21.623Z,-2.39
2023-02-11T03:12:52.564Z,-2.43
2023-02-11T03:15:24.444Z,-2.98
2023-02-11T03:18:00.979Z,-2.58
2023-02-11T03:20:33.457Z,-2.58
2023-02-11T03:23:11.232Z,-2.52
2023-02-11T03:25:46.233Z,-2.55
2023-02-11T03:28:34.116Z,-2.76
2023-02-11T03:31:20.693Z,-3.37
2023-02-11T03:34:18.732Z,-2.67
2023-02-11T03:37:04.715Z,-2.76
2023-02-11T03:39:47.018Z,-2.82
2023-02-11T03:42:16.380Z,-2.90
2023-02-11T03:44:53.753Z,-3.03
2023-02-11T03:47:26.579Z,-3.14
2023-02-11T03:49:57.933Z,-3.21
2023-02-11T03:52:26.999Z,-3.27
2023-02-11T03:54:58.423Z,-3.32
2023-02-11T03:57:26.011Z,-3.32
2023-02-11T03:59:58.509Z,-3.42
2023-02-11T04:02:29.768Z,-3.45
2023-02-11T04:04:57.093Z,-3.47
2023-02-11T04:07:24.628Z,-4.20
2023-02-11T04:09:52.484Z,-4.00
2023-02-11T04:12:20.543Z,-3.58
2023-02-11T04:14:48.157Z,-3.78
2023-02-11T04:17:15.744Z,-3.64
2023-02-11T04:19:43.268Z,-3.66
2023-02-11T04:22:10.834Z,-3.66
2023-02-11T04:24:38.414Z,-4.31
2023-02-11T04:27:06.029Z,-3.78
2023-02-11T04:29:33.551Z,-3.77
2023-02-11T04:32:01.495Z,-3.83
2023-02-11T04:34:28.994Z,-4.62
2023-02-11T04:36:56.314Z,-3.84
2023-02-11T04:39:23.929Z,-4.05
2023-02-11T04:41:51.407Z,-3.99
2023-02-11T04:44:18.961Z,-4.04
2023-02-11T04:46:46.672Z,-3.91
2023-02-11T04:49:16.186Z,-4.60
2023-02-11T04:51:47.600Z,-4.64
2023-02-11T04:54:20.299Z,-3.97
2023-02-11T04:56:49.771Z,-3.99
2023-02-11T04:59:17.391Z,-4.18
2023-02-11T05:01:47.260Z,-3.96
2023-02-11T05:04:14.994Z,-4.04
2023-02-11T05:06:42.352Z,-4.04
2023-02-11T05:09:12.374Z,-4.51
2023-02-11T05:11:40.273Z,-3.90
2023-02-11T05:14:07.955Z,-4.38
2023-02-11T05:16:35.505Z,-3.95
2023-02-11T05:19:03.263Z,-3.71
2023-02-11T05:21:30.778Z,-3.64
2023-02-11T05:23:58.920Z,-3.52
2023-02-11T05:26:27.007Z,-3.41
2023-02-11T05:28:54.268Z,-3.53
2023-02-11T05:31:22.060Z,-3.15
2023-02-11T05:33:49.393Z,-3.05
2023-02-11T05:36:17.013Z,-2.90
2023-02-11T05:38:44.554Z,-2.78
2023-02-11T05:41:12.459Z,-2.79
2023-02-11T05:43:40.084Z,-2.79
2023-02-11T05:46:07.911Z,-3.26
2023-02-11T05:48:35.477Z,-2.54
2023-02-11T05:51:03.053Z,-2.64
2023-02-11T05:53:30.474Z,-2.47
2023-02-11T05:55:57.998Z,-2.36
2023-02-11T05:58:25.371Z,-2.48
2023-02-11T06:00:52.738Z,-2.27
2023-02-11T06:03:20.398Z,-2.28
2023-02-11T06:05:50.586Z,-2.83
2023-02-11T06:08:18.277Z,-2.14
2023-02-11T06:10:46.446Z,-3.40
2023-02-11T06:13:13.942Z,-2.17
2023-02-11T06:15:41.524Z,-3.27
2023-02-11T06:18:09.869Z,-2.13
2023-02-11T06:20:37.529Z,-2.19
2023-02-11T06:23:04.938Z,-2.12
2023-02-11T06:25:32.316Z,-2.29
2023-02-11T06:27:59.816Z,-2.14
2023-02-11T06:30:27.554Z,-2.14
2023-02-11T06:32:55.136Z,-1.95
2023-02-11T06:35:22.354Z,-1.99
2023-02-11T06:37:49.975Z,-1.97
2023-02-11T06:40:20.323Z,-1.92
2023-02-11T06:42:47.847Z,-1.85
2023-02-11T06:45:15.697Z,-1.79
2023-02-11T06:47:43.083Z,-1.80
2023-02-11T06:50:14.093Z,-2.34
2023-02-11T06:52:42.114Z,-1.66
2023-02-11T06:55:09.603Z,-1.81
2023-02-11T06:57:37.071Z,-1.22
2023-02-11T07:00:05.887Z,-0.15
2023-02-11T07:02:33.576Z,2.39
2023-02-11T07:05:01.084Z,3.83
2023-02-11T07:07:34.113Z,4.69
2023-02-11T07:10:04.158Z,4.70
2023-02-11T07:12:32.247Z,5.25
2023-02-11T07:14:59.677Z,4.13
2023-02-11T07:17:27.638Z,3.01
2023-02-11T07:19:55.075Z,2.77
2023-02-11T07:22:22.613Z,2.74
2023-02-11T07:24:50.190Z,2.15
2023-02-11T07:27:17.727Z,2.10
2023-02-11T07:29:47.305Z,1.43
2023-02-11T07:32:14.800Z,1.63
2023-02-11T07:34:42.259Z,1.31
2023-02-11T07:37:09.689Z,0.62
2023-02-11T07:39:37.204Z,-0.14
2023-02-11T07:42:04.831Z,0.80
2023-02-11T07:44:33.648Z,1.24
2023-02-11T07:47:01.231Z,1.05
2023-02-11T07:49:29.354Z,1.54
2023-02-11T07:51:57.128Z,1.65
2023-02-11T07:54:24.658Z,0.73
2023-02-11T07:56:51.943Z,0.71
2023-02-11T07:59:19.583Z,0.79
2023-02-11T08:01:46.915Z,0.62
2023-02-11T08:04:14.417Z,0.17
2023-02-11T08:06:43.622Z,0.39
2023-02-11T08:09:16.504Z,0.19
2023-02-11T08:11:44.857Z,0.04
2023-02-11T08:14:12.763Z,-0.56
2023-02-11T08:16:40.961Z,0.09
2023-02-11T08:19:12.862Z,0.14
2023-02-11T08:21:40.787Z,-0.30
2023-02-11T08:24:09.125Z,0.13
2023-02-11T08:26:37.164Z,0.11
2023-02-11T08:29:11.637Z,-0.89
2023-02-11T08:31:41.718Z,-0.18
2023-02-11T08:34:11.602Z,-0.71
2023-02-11T08:36:40.203Z,-0.18
2023-02-11T08:39:20.307Z,0.02
2023-02-11T08:41:50.334Z,-0.05
2023-02-11T08:44:19.342Z,0.02
2023-02-11T08:46:47.803Z,-0.06
2023-02-11T08:49:15.825Z,-0.20
2023-02-11T08:51:44.095Z,-0.35
2023-02-11T08:54:12.121Z,-0.56
2023-02-11T08:56:39.907Z,-0.76
2023-02-11T08:59:09.641Z,-1.81
2023-02-11T09:01:37.427Z,-0.75
2023-02-11T09:04:05.170Z,-0.73
2023-02-11T09:06:33.274Z,-0.68
2023-02-11T09:09:00.814Z,-0.51
2023-02-11T09:11:34.779Z,-0.68
2023-02-11T09:14:04.281Z,-1.18
2023-02-11T09:16:35.851Z,-1.27
2023-02-11T09:19:05.867Z,-0.50
2023-02-11T09:21:33.682Z,-0.40
2023-02-11T09:24:01.514Z,-0.64
2023-02-11T09:26:32.318Z,-0.24
2023-02-11T09:29:00.524Z,-0.22
2023-02-11T09:31:30.132Z,-0.70
2023-02-11T09:34:00.867Z,-0.27
2023-02-11T09:36:30.510Z,-0.31
2023-02-11T09:39:02.723Z,-0.65
2023-02-11T09:41:41.776Z,-0.79
2023-02-11T09:44:20.301Z,-0.99
2023-02-11T09:46:55.140Z,-1.12
2023-02-11T09:49:30.769Z,-1.18
2023-02-11T09:52:08.204Z,-1.20
2023-02-11T09:54:56.301Z,-1.42
2023-02-11T09:57:29.407Z,-1.49
2023-02-11T09:59:58.189Z,-1.48
2023-02-11T10:03:03.911Z,-1.56
2023-02-11T10:06:20.546Z,-1.66
2023-02-11T10:09:25.459Z,-1.68
2023-02-11T10:12:02.230Z,-1.57
2023-02-11T10:14:49.548Z,-1.47
2023-02-11T10:17:38.338Z,-1.56
2023-02-11T10:20:26.816Z,-1.55
2023-02-11T10:22:59.403Z,-1.56
2023-02-11T10:25:34.276Z,-1.54
2023-02-11T10:28:23.965Z,-1.57
2023-02-11T10:31:16.096Z,-1.48
2023-02-11T10:33:53.985Z,-1.42
2023-02-11T10:36:24.432Z,-2.10
2023-02-11T10:38:52.126Z,-1.44
2023-02-11T10:41:30.653Z,-1.38
2023-02-11T10:44:01.025Z,-1.21
2023-02-11T10:46:36.970Z,-1.20
2023-02-11T10:49:04.475Z,-1.70
2023-02-11T10:51:34.397Z,-1.20
2023-02-11T10:54:04.756Z,-1.01
2023-02-11T10:56:36.890Z,-0.91
2023-02-11T10:59:21.594Z,-0.86
2023-02-11T11:02:23.806Z,-0.86
2023-02-11T11:04:57.946Z,-0.99
2023-02-11T11:07:33.799Z,-0.93
2023-02-11T11:10:08.845Z,-0.93
2023-02-11T11:12:43.254Z,-0.73
2023-02-11T11:15:10.662Z,-0.66
2023-02-11T11:17:38.750Z,-0.61
2023-02-11T11:20:27.863Z,-0.71
2023-02-11T11:23:17.228Z,-0.83
2023-02-11T11:25:59.624Z,-0.80
2023-02-11T11:28:30.484Z,-1.99
2023-02-11T11:31:00.054Z,-0.96
2023-02-11T11:33:31.519Z,-0.96
2023-02-11T11:36:17.138Z,-0.97
2023-02-11T11:38:50.717Z,-0.93
2023-02-11T11:41:27.895Z,-1.01
2023-02-11T11:44:00.413Z,-1.07
2023-02-11T11:46:31.046Z,-1.02
2023-02-11T11:49:20.828Z,-1.11
2023-02-11T11:52:05.256Z,-1.34
2023-02-11T11:54:35.030Z,-2.07
2023-02-11T11:57:15.813Z,-1.34
2023-02-11T11:59:43.146Z,-1.49
2023-02-11T12:02:32.514Z,-1.58
2023-02-11T12:05:13.367Z,-1.63
2023-02-11T12:08:02.304Z,-1.64
2023-02-11T12:10:53.642Z,-1.65
2023-02-11T12:13:21.235Z,-1.55
2023-02-11T12:16:03.509Z,-1.61
2023-02-11T12:18:54.250Z,-1.66
2023-02-11T12:21:24.800Z,-1.67
2023-02-11T12:24:10.258Z,-1.61
2023-02-11T12:26:57.100Z,-1.63
2023-02-11T12:29:27.402Z,-1.52
2023-02-11T12:32:17.742Z,-1.54
2023-02-11T12:35:06.917Z,-1.57
2023-02-11T12:37:56.121Z,-1.67
2023-02-11T12:40:36.443Z,-1.60
2023-02-11T12:43:19.096Z,-1.56
2023-02-11T12:46:15.256Z,-1.64
2023-02-11T12:48:51.643Z,-1.62
2023-02-11T12:52:09.082Z,-1.64
2023-02-11T12:54:47.079Z,-1.74
2023-02-11T12:57:22.210Z,-1.68
2023-02-11T13:00:15.010Z,-1.61
2023-02-11T13:03:06.295Z,-1.60
2023-02-11T13:05:57.548Z,-1.67
2023-02-11T13:08:54.506Z,-1.83
2023-02-11T13:11:28.882Z,-1.88
2023-02-11T13:14:32.990Z,-1.96
2023-02-11T13:17:01.155Z,-1.99
2023-02-11T13:19:42.861Z,-2.44
2023-02-11T13:22:20.068Z,-1.96
2023-02-11T13:24:58.663Z,-2.02
2023-02-11T13:27:43.105Z,-2.16
2023-02-11T13:30:19.890Z,-1.99
2023-02-11T13:32:56.016Z,-2.09
2023-02-11T13:35:31.245Z,-2.29
2023-02-11T13:38:01.487Z,-2.14
2023-02-11T13:40:35.660Z,-2.48
2023-02-11T13:43:06.575Z,-2.25
2023-02-11T13:45:49.169Z,-2.24
2023-02-11T13:48:31.349Z,-2.33
2023-02-11T13:51:03.051Z,-2.42
2023-02-11T13:53:44.214Z,-2.47
2023-02-11T13:56:36.252Z,-2.54
2023-02-11T13:59:07.796Z,-2.58
2023-02-11T14:02:19.856Z,-2.60
2023-02-11T14:05:24.332Z,-2.63
2023-02-11T14:08:28.238Z,-2.59
2023-02-11T14:11:12.806Z,-2.61
2023-02-11T14:13:49.494Z,-2.68
2023-02-11T14:16:31.554Z,-2.71
2023-02-11T14:19:06.536Z,-2.69
2023-02-11T14:21:43.345Z,-2.68
2023-02-11T14:24:13.214Z,-2.66
2023-02-11T14:27:02.178Z,-3.17
2023-02-11T14:29:33.704Z,-2.74
2023-02-11T14:32:16.238Z,-2.73
2023-02-11T14:35:22.787Z,-2.80
2023-02-11T14:38:07.116Z,-2.84
2023-02-11T14:41:02.341Z,-2.80
2023-02-11T14:43:40.396Z,-3.43
2023-02-11T14:46:08.976Z,-3.18
2023-02-11T14:48:46.035Z,-2.74
2023-02-11T14:51:15.220Z,-2.69
2023-02-11T14:53:51.669Z,-2.68
2023-02-11T14:56:19.220Z,-2.68
2023-02-11T14:58:49.246Z,-3.38
2023-02-11T15:01:29.438Z,-2.66
2023-02-11T15:03:58.489Z,-2.59
2023-02-11T15:06:31.809Z,-2.59
2023-02-11T15:09:25.629Z,-2.64
2023-02-11T15:11:53.838Z,-2.63
2023-02-11T15:14:30.210Z,-2.74
2023-02-11T15:17:00.955Z,-2.62
2023-02-11T15:19:39.804Z,-2.60
2023-02-11T15:22:29.780Z,-2.65
2023-02-11T15:25:10.713Z,-2.63
2023-02-11T15:27:49.636Z,-2.63
2023-02-11T15:30:23.019Z,-2.62
2023-02-11T15:32:59.239Z,-2.60
2023-02-11T15:35:30.262Z,-3.10
2023-02-11T15:37:59.135Z,-2.61
2023-02-11T15:40:30.018Z,-2.53
2023-02-11T15:43:03.627Z,-2.48
2023-02-11T15:45:33.884Z,-2.50
2023-02-11T15:48:18.783Z,-2.55
2023-02-11T15:50:55.799Z,-2.55
2023-02-11T15:53:34.034Z,-2.59
2023-02-11T15:56:19.571Z,-2.56
2023-02-11T15:58:50.488Z,-2.61
2023-02-11T16:01:18.294Z,-2.52
2023-02-11T16:03:50.948Z,-2.51
2023-02-11T16:06:27.043Z,-3.04
2023-02-11T16:09:00.673Z,-2.54
2023-02-11T16:11:33.732Z,-2.74
2023-02-11T16:14:06.565Z,-2.54
2023-02-11T16:16:35.027Z,-2.50
2023-02-11T16:19:06.174Z,-3.00
2023-02-11T16:21:39.391Z,-2.49
2023-02-11T16:24:21.780Z,-3.15
2023-02-11T16:26:52.311Z,-2.46
2023-02-11T16:29:25.288Z,-2.54
2023-02-11T16:31:54.659Z,-2.42
2023-02-11T16:34:26.183Z,-2.42
2023-02-11T16:36:53.834Z,-2.47
2023-02-11T16:39:22.612Z,-2.45
2023-02-11T16:41:52.324Z,-2.51
2023-02-11T16:44:20.324Z,-2.45
2023-02-11T16:46:48.286Z,-3.12
2023-02-11T16:49:24.633Z,-2.93
2023-02-11T16:51:56.683Z,-2.52
2023-02-11T16:54:24.290Z,-2.62
2023-02-11T16:56:52.013Z,-3.09
2023-02-11T16:59:19.953Z,-2.50
2023-02-11T17:01:49.011Z,-2.37
2023-02-11T17:04:24.107Z,-2.40
2023-02-11T17:06:51.599Z,-3.32
2023-02-11T17:09:21.598Z,-2.68
2023-02-11T17:11:50.050Z,-2.38
2023-02-11T17:14:18.574Z,-2.39
2023-02-11T17:16:46.855Z,-2.40
2023-02-11T17:19:17.254Z,-2.39
2023-02-11T17:21:46.999Z,-2.38
2023-02-11T17:24:15.304Z,-3.00
2023-02-11T17:26:44.433Z,-2.33
2023-02-11T17:29:15.622Z,-3.17
2023-02-11T17:31:43.388Z,-2.36
2023-02-11T17:34:11.372Z,-3.07
2023-02-11T17:36:41.505Z,-2.97
2023-02-11T17:39:09.205Z,-2.87
2023-02-11T17:41:38.075Z,-2.49
2023-02-11T17:44:07.412Z,-2.37
2023-02-11T17:46:36.293Z,-2.35
2023-02-11T17:49:04.588Z,-2.42
2023-02-11T17:51:34.811Z,-2.35
2023-02-11T17:54:06.264Z,-2.36
2023-02-11T17:56:35.535Z,-2.31
2023-02-11T17:59:04.620Z,-3.18
2023-02-11T18:01:33.802Z,-2.48
2023-02-11T18:04:02.404Z,-2.30
2023-02-11T18:06:29.888Z,-2.34
2023-02-11T18:09:04.542Z,-2.28
2023-02-11T18:11:34.310Z,-2.25
2023-02-11T18:14:03.203Z,-2.25
2023-02-11T18:16:31.550Z,-2.24
2023-02-11T18:18:59.237Z,-2.23
2023-02-11T18:21:26.620Z,-2.20
2023-02-11T18:23:54.284Z,-2.22
2023-02-11T18:26:22.408Z,-2.23
2023-02-11T18:28:53.082Z,-2.27
2023-02-11T18:31:22.424Z,-2.19
2023-02-11T18:33:50.118Z,-2.33
2023-02-11T18:36:17.681Z,-3.04
2023-02-11T18:38:45.335Z,-2.15
2023-02-11T18:41:14.043Z,-2.19
2023-02-11T18:43:43.252Z,-2.19
2023-02-11T18:46:14.004Z,-2.15
2023-02-11T18:48:42.023Z,-2.15
2023-02-11T18:51:12.888Z,-2.12
2023-02-11T18:53:40.796Z,-2.21
2023-02-11T18:56:14.284Z,-2.91
2023-02-11T18:58:42.302Z,-2.08
2023-02-11T19:01:15.569Z,-2.15
2023-02-11T19:03:52.197Z,-2.49
2023-02-11T19:06:24.993Z,-2.11
2023-02-11T19:08:55.531Z,-2.14
2023-02-11T19:11:45.165Z,-1.98
2023-02-11T19:14:13.515Z,-2.02
2023-02-11T19:16:43.649Z,-2.06
2023-02-11T19:19:11.003Z,-2.04
2023-02-11T19:21:39.112Z,-2.04
2023-02-11T19:24:08.185Z,-2.07
2023-02-11T19:26:36.945Z,-2.00
2023-02-11T19:29:05.730Z,-2.05
2023-02-11T19:31:33.977Z,-1.94
2023-02-11T19:34:03.274Z,-1.91
2023-02-11T19:36:31.264Z,-1.88
2023-02-11T19:39:03.745Z,-1.98
2023-02-11T19:41:32.070Z,-2.71
2023-02-11T19:44:00.635Z,-1.93
2023-02-11T19:46:30.494Z,-1.99
2023-02-11T19:49:00.000Z,-1.93
2023-02-11T19:51:28.438Z,-2.03
2023-02-11T19:53:56.023Z,-1.87
2023-02-11T19:56:23.713Z,-1.84
2023-02-11T19:58:51.371Z,-1.83
2023-02-11T20:01:21.776Z,-1.91
2023-02-11T20:03:54.998Z,-2.84
2023-02-11T20:06:25.468Z,-1.79
2023-02-11T20:09:02.674Z,-1.72
2023-02-11T20:11:34.393Z,-1.74
2023-02-11T20:14:03.653Z,-1.76
2023-02-11T20:16:46.900Z,-1.91
2023-02-11T20:19:18.491Z,-2.36
2023-02-11T20:21:47.813Z,-2.37
2023-02-11T20:24:17.869Z,-1.98
2023-02-11T20:26:48.579Z,-1.71
2023-02-11T20:29:17.978Z,-2.26
2023-02-11T20:31:45.797Z,-2.19
2023-02-11T20:34:13.753Z,-1.68
2023-02-11T20:36:41.533Z,-1.67
2023-02-11T20:39:11.132Z,-1.64
2023-02-11T20:41:41.840Z,-1.99
2023-02-11T20:44:11.262Z,-2.17
2023-02-11T20:46:42.084Z,-1.67
2023-02-11T20:49:14.755Z,-1.71
2023-02-11T20:51:43.035Z,-1.68
2023-02-11T20:54:16.068Z,-2.25
2023-02-11T20:56:46.783Z,-1.75
2023-02-11T20:59:16.804Z,-1.72
2023-02-11T21:01:47.432Z,-1.76
2023-02-11T21:04:17.588Z,-1.58
2023-02-11T21:06:53.862Z,-1.60
2023-02-11T21:09:24.870Z,-1.58
2023-02-11T21:11:53.908Z,-1.49
2023-02-11T21:14:24.195Z,-1.45
2023-02-11T21:16:52.148Z,-1.74
2023-02-11T21:19:20.469Z,-1.46
2023-02-11T21:21:48.689Z,-1.43
2023-02-11T21:24:16.398Z,-1.46
2023-02-11T21:26:43.997Z,-1.43
2023-02-11T21:29:12.252Z,-1.40
2023-02-11T21:31:40.633Z,-1.91
2023-02-11T21:34:08.359Z,-1.34
2023-02-11T21:36:35.976Z,-1.33
2023-02-11T21:39:04.293Z,-1.33
2023-02-11T21:41:32.308Z,-2.13
2023-02-11T21:44:00.294Z,-1.42
2023-02-11T21:46:28.322Z,-1.31
2023-02-11T21:48:55.643Z,-1.29
2023-02-11T21:51:25.237Z,-1.41
2023-02-11T21:53:58.522Z,-1.24
2023-02-11T21:56:29.925Z,-1.22
2023-02-11T21:58:59.574Z,-1.22
2023-02-11T22:01:33.260Z,-1.23
2023-02-11T22:04:00.815Z,-1.86
2023-02-11T22:06:31.227Z,-1.22
2023-02-11T22:09:02.110Z,-1.19
2023-02-11T22:11:29.589Z,-1.21
2023-02-11T22:13:58.054Z,-1.08
2023-02-11T22:16:26.527Z,-1.13
2023-02-11T22:18:54.279Z,-2.19
2023-02-11T22:21:23.179Z,-1.26
2023-02-11T22:23:51.889Z,-1.49
2023-02-11T22:26:21.902Z,-1.14
2023-02-11T22:28:51.256Z,-1.13
2023-02-11T22:31:25.303Z,-1.11
2023-02-11T22:33:53.293Z,-1.49
2023-02-11T22:36:28.007Z,-0.99
2023-02-11T22:38:55.862Z,-0.97
2023-02-11T22:41:24.617Z,-0.96
2023-02-11T22:43:52.226Z,-1.00
2023-02-11T22:46:20.742Z,-1.42
2023-02-11T22:48:49.825Z,-1.49
2023-02-11T22:51:23.856Z,-0.84
2023-02-11T22:53:59.274Z,-0.85
2023-02-11T22:56:28.673Z,-0.88
2023-02-11T22:59:05.112Z,-0.88
2023-02-11T23:01:33.003Z,-0.99
2023-02-11T23:04:02.635Z,-0.92
2023-02-11T23:06:30.251Z,-0.82
2023-02-11T23:08:58.129Z,-0.82
2023-02-11T23:11:29.154Z,-0.73
2023-02-11T23:13:56.829Z,-0.72
2023-02-11T23:16:27.226Z,-0.72
2023-02-11T23:18:55.356Z,-0.71
2023-02-11T23:21:27.630Z,-0.71
2023-02-11T23:24:04.584Z,-0.67
2023-02-11T23:26:32.573Z,-0.64
2023-02-11T23:29:00.674Z,-0.63
2023-02-11T23:31:34.365Z,-0.68
2023-02-11T23:34:02.313Z,-1.08
2023-02-11T23:36:29.978Z,-0.58
2023-02-11T23:38:57.785Z,-0.61
2023-02-11T23:41:26.598Z,-0.63
2023-02-11T23:43:56.278Z,-0.64
2023-02-11T23:46:26.026Z,-1.12
2023-02-11T23:48:54.131Z,-0.56
2023-02-11T23:51:22.475Z,-0.61
2023-02-11T23:53:51.249Z,-0.63
2023-02-11T23:56:22.205Z,-0.65
2023-02-11T23:58:50.949Z,-0.66
